sensor_id;sensor_type;location;lat;lon;timestamp;temperature;humidity
10123;DHT22;5101;49.038;8.710;2023-05-08T00:00:00;16.40;99.90
10123;DHT22;5101;49.038;8.710;2023-05-08T00:02:30;16.40;99.90
10123;DHT22;5101;49.038;8.710;2023-05-08T00:04:55;16.30;99.90
10123;DHT22;5101;49.038;8.710;2023-05-08T00:07:21;16.40;99.90
10123;DHT22;5101;49.038;8.710;2023-05-08T00:09:46;16.40;99.90
10123;DHT22;5101;49.038;8.710;2023-05-08T00:12:12;16.40;99.90
10123;DHT22;5101;49.038;8.710;2023-05-08T00:14:38;16.40;99.90
10123;DHT22;5101;49.038;8.710;2023-05-08T00:17:03;16.30;99.90
10123;DHT22;5101;49.038;8.710;2023-05-08T00:19:28;16.30;99.90
10123;DHT22;5101;49.038;8.710;2023-05-08T00:21:54;16.30;99.90
10123;DHT22;5101;49.038;8.710;2023-05-08T00:24:19;16.30;99.90
10123;DHT22;5101;49.038;8.710;2023-05-08T00:26:45;16.30;99.90
10123;DHT22;5101;49.038;8.710;2023-05-08T00:29:11;16.30;99.90
10123;DHT22;5101;49.038;8.710;2023-05-08T00:31:36;16.30;99.90
10123;DHT22;5101;49.038;8.710;2023-05-08T00:34:02;16.30;99.90
10123;DHT22;5101;49.038;8.710;2023-05-08T00:36:27;16.30;99.90
10123;DHT22;5101;49.038;8.710;2023-05-08T00:38:53;16.30;99.90
10123;DHT22;5101;49.038;8.710;2023-05-08T00:41:18;16.30;99.90
10123;DHT22;5101;49.038;8.710;2023-05-08T00:43:44;16.30;99.90
10123;DHT22;5101;49.038;8.710;2023-05-08T00:46:10;16.40;99.90
10123;DHT22;5101;49.038;8.710;2023-05-08T00:48:36;16.30;99.90
10123;DHT22;5101;49.038;8.710;2023-05-08T00:51:05;16.30;99.90
10123;DHT22;5101;49.038;8.710;2023-05-08T00:53:34;16.30;99.90
10123;DHT22;5101;49.038;8.710;2023-05-08T00:56:00;16.30;99.90
10123;DHT22;5101;49.038;8.710;2023-05-08T00:58:27;16.30;99.90
10123;DHT22;5101;49.038;8.710;2023-05-08T01:00:54;16.30;99.90
10123;DHT22;5101;49.038;8.710;2023-05-08T01:03:21;16.30;99.90
10123;DHT22;5101;49.038;8.710;2023-05-08T01:05:48;16.30;99.90
10123;DHT22;5101;49.038;8.710;2023-05-08T01:08:13;16.30;99.90
10123;DHT22;5101;49.038;8.710;2023-05-08T01:14:00;16.30;99.90
10123;DHT22;5101;49.038;8.710;2023-05-08T01:16:55;16.30;99.90
10123;DHT22;5101;49.038;8.710;2023-05-08T01:28:06;16.20;99.90
10123;DHT22;5101;49.038;8.710;2023-05-08T01:35:54;16.20;99.90
10123;DHT22;5101;49.038;8.710;2023-05-08T01:38:29;16.30;99.90
10123;DHT22;5101;49.038;8.710;2023-05-08T01:41:09;16.30;99.90
10123;DHT22;5101;49.038;8.710;2023-05-08T01:43:51;16.30;99.90
10123;DHT22;5101;49.038;8.710;2023-05-08T01:46:21;16.30;99.90
10123;DHT22;5101;49.038;8.710;2023-05-08T01:48:59;16.30;99.90
10123;DHT22;5101;49.038;8.710;2023-05-08T01:54:24;16.30;99.90
10123;DHT22;5101;49.038;8.710;2023-05-08T01:56:53;16.30;99.90
10123;DHT22;5101;49.038;8.710;2023-05-08T01:59:22;16.30;99.90
10123;DHT22;5101;49.038;8.710;2023-05-08T02:01:51;16.30;99.90
10123;DHT22;5101;49.038;8.710;2023-05-08T02:04:18;16.20;99.90
10123;DHT22;5101;49.038;8.710;2023-05-08T02:06:45;16.20;99.90
10123;DHT22;5101;49.038;8.710;2023-05-08T02:09:11;16.20;99.90
10123;DHT22;5101;49.038;8.710;2023-05-08T02:11:38;16.20;99.90
10123;DHT22;5101;49.038;8.710;2023-05-08T02:14:06;16.20;99.90
10123;DHT22;5101;49.038;8.710;2023-05-08T02:16:33;16.20;99.90
10123;DHT22;5101;49.038;8.710;2023-05-08T02:18:59;16.20;99.90
10123;DHT22;5101;49.038;8.710;2023-05-08T02:21:26;16.20;99.90
10123;DHT22;5101;49.038;8.710;2023-05-08T02:23:53;16.30;99.90
10123;DHT22;5101;49.038;8.710;2023-05-08T02:26:21;16.20;99.90
10123;DHT22;5101;49.038;8.710;2023-05-08T02:28:48;16.20;99.90
10123;DHT22;5101;49.038;8.710;2023-05-08T02:31:15;16.20;99.90
10123;DHT22;5101;49.038;8.710;2023-05-08T02:33:42;16.20;99.90
10123;DHT22;5101;49.038;8.710;2023-05-08T02:36:10;16.20;99.90
10123;DHT22;5101;49.038;8.710;2023-05-08T02:38:38;16.20;99.90
10123;DHT22;5101;49.038;8.710;2023-05-08T02:41:06;16.20;99.90
10123;DHT22;5101;49.038;8.710;2023-05-08T02:43:33;16.20;99.90
10123;DHT22;5101;49.038;8.710;2023-05-08T02:46:21;16.20;99.90
10123;DHT22;5101;49.038;8.710;2023-05-08T02:49:06;16.20;99.90
10123;DHT22;5101;49.038;8.710;2023-05-08T02:54:39;16.20;99.90
10123;DHT22;5101;49.038;8.710;2023-05-08T02:57:30;16.20;99.90
10123;DHT22;5101;49.038;8.710;2023-05-08T03:00:21;16.20;99.90
10123;DHT22;5101;49.038;8.710;2023-05-08T03:02:59;16.20;99.90
10123;DHT22;5101;49.038;8.710;2023-05-08T03:05:29;16.20;99.90
10123;DHT22;5101;49.038;8.710;2023-05-08T03:07:59;16.20;99.90
10123;DHT22;5101;49.038;8.710;2023-05-08T03:10:30;16.20;99.90
10123;DHT22;5101;49.038;8.710;2023-05-08T03:12:58;16.20;99.90
10123;DHT22;5101;49.038;8.710;2023-05-08T03:15:36;16.20;99.90
10123;DHT22;5101;49.038;8.710;2023-05-08T03:18:07;16.30;99.90
10123;DHT22;5101;49.038;8.710;2023-05-08T03:20:37;16.20;99.90
10123;DHT22;5101;49.038;8.710;2023-05-08T03:23:05;16.20;99.90
10123;DHT22;5101;49.038;8.710;2023-05-08T03:25:33;16.20;99.90
10123;DHT22;5101;49.038;8.710;2023-05-08T03:27:59;16.20;99.90
10123;DHT22;5101;49.038;8.710;2023-05-08T03:30:26;16.20;99.90
10123;DHT22;5101;49.038;8.710;2023-05-08T03:32:53;16.20;99.90
10123;DHT22;5101;49.038;8.710;2023-05-08T03:35:20;16.30;99.90
10123;DHT22;5101;49.038;8.710;2023-05-08T03:37:46;16.20;99.90
10123;DHT22;5101;49.038;8.710;2023-05-08T03:40:12;16.20;99.90
10123;DHT22;5101;49.038;8.710;2023-05-08T03:42:39;16.20;99.90
10123;DHT22;5101;49.038;8.710;2023-05-08T03:45:06;16.20;99.90
10123;DHT22;5101;49.038;8.710;2023-05-08T03:47:34;16.30;99.90
10123;DHT22;5101;49.038;8.710;2023-05-08T03:50:00;16.30;99.90
10123;DHT22;5101;49.038;8.710;2023-05-08T03:52:26;16.30;99.90
10123;DHT22;5101;49.038;8.710;2023-05-08T03:54:51;16.30;99.90
10123;DHT22;5101;49.038;8.710;2023-05-08T03:57:17;16.30;99.90
10123;DHT22;5101;49.038;8.710;2023-05-08T04:00:13;16.30;99.90
10123;DHT22;5101;49.038;8.710;2023-05-08T04:02:51;16.30;99.90
10123;DHT22;5101;49.038;8.710;2023-05-08T04:05:55;16.30;99.90
10123;DHT22;5101;49.038;8.710;2023-05-08T04:08:27;16.30;99.90
10123;DHT22;5101;49.038;8.710;2023-05-08T04:11:03;16.30;99.90
10123;DHT22;5101;49.038;8.710;2023-05-08T04:13:31;16.30;99.90
10123;DHT22;5101;49.038;8.710;2023-05-08T04:16:20;16.30;99.90
10123;DHT22;5101;49.038;8.710;2023-05-08T04:18:49;16.20;99.90
10123;DHT22;5101;49.038;8.710;2023-05-08T04:21:19;16.10;99.90
10123;DHT22;5101;49.038;8.710;2023-05-08T04:23:46;16.20;99.90
10123;DHT22;5101;49.038;8.710;2023-05-08T04:26:15;16.20;99.90
10123;DHT22;5101;49.038;8.710;2023-05-08T04:28:41;16.20;99.90
10123;DHT22;5101;49.038;8.710;2023-05-08T04:31:06;16.20;99.90
10123;DHT22;5101;49.038;8.710;2023-05-08T04:33:33;16.30;99.90
10123;DHT22;5101;49.038;8.710;2023-05-08T04:36:02;16.20;99.90
10123;DHT22;5101;49.038;8.710;2023-05-08T04:38:28;16.30;99.90
10123;DHT22;5101;49.038;8.710;2023-05-08T04:40:53;16.30;99.90
10123;DHT22;5101;49.038;8.710;2023-05-08T04:43:19;16.30;99.90
10123;DHT22;5101;49.038;8.710;2023-05-08T04:45:45;16.30;99.90
10123;DHT22;5101;49.038;8.710;2023-05-08T04:48:10;16.30;99.90
10123;DHT22;5101;49.038;8.710;2023-05-08T04:50:36;16.30;99.90
10123;DHT22;5101;49.038;8.710;2023-05-08T04:53:01;16.30;99.90
10123;DHT22;5101;49.038;8.710;2023-05-08T04:55:27;16.40;99.90
10123;DHT22;5101;49.038;8.710;2023-05-08T04:57:52;16.40;99.90
10123;DHT22;5101;49.038;8.710;2023-05-08T05:00:18;16.40;99.90
10123;DHT22;5101;49.038;8.710;2023-05-08T05:02:44;16.40;99.90
10123;DHT22;5101;49.038;8.710;2023-05-08T05:05:09;16.40;99.90
10123;DHT22;5101;49.038;8.710;2023-05-08T05:07:35;16.50;99.90
10123;DHT22;5101;49.038;8.710;2023-05-08T05:10:01;16.40;99.90
10123;DHT22;5101;49.038;8.710;2023-05-08T05:12:26;16.50;99.90
10123;DHT22;5101;49.038;8.710;2023-05-08T05:14:52;16.50;99.90
10123;DHT22;5101;49.038;8.710;2023-05-08T05:17:17;16.50;99.90
10123;DHT22;5101;49.038;8.710;2023-05-08T05:19:43;16.50;99.90
10123;DHT22;5101;49.038;8.710;2023-05-08T05:22:08;16.50;99.90
10123;DHT22;5101;49.038;8.710;2023-05-08T05:24:34;16.50;99.90
10123;DHT22;5101;49.038;8.710;2023-05-08T05:27:01;16.50;99.90
10123;DHT22;5101;49.038;8.710;2023-05-08T05:29:26;16.50;99.90
10123;DHT22;5101;49.038;8.710;2023-05-08T05:31:52;16.50;99.90
10123;DHT22;5101;49.038;8.710;2023-05-08T05:34:18;16.50;99.90
10123;DHT22;5101;49.038;8.710;2023-05-08T05:36:43;16.50;99.90
10123;DHT22;5101;49.038;8.710;2023-05-08T05:39:09;16.60;99.90
10123;DHT22;5101;49.038;8.710;2023-05-08T05:41:34;16.60;99.90
10123;DHT22;5101;49.038;8.710;2023-05-08T05:44:00;16.60;99.90
10123;DHT22;5101;49.038;8.710;2023-05-08T05:46:26;16.60;99.90
10123;DHT22;5101;49.038;8.710;2023-05-08T05:48:57;16.60;99.90
10123;DHT22;5101;49.038;8.710;2023-05-08T05:51:22;16.60;99.90
10123;DHT22;5101;49.038;8.710;2023-05-08T05:53:48;16.60;99.90
10123;DHT22;5101;49.038;8.710;2023-05-08T05:56:14;16.70;99.90
10123;DHT22;5101;49.038;8.710;2023-05-08T05:58:39;16.70;99.90
10123;DHT22;5101;49.038;8.710;2023-05-08T06:01:09;16.70;99.90
10123;DHT22;5101;49.038;8.710;2023-05-08T06:03:34;16.70;99.90
10123;DHT22;5101;49.038;8.710;2023-05-08T06:06:00;16.70;99.90
10123;DHT22;5101;49.038;8.710;2023-05-08T06:08:25;16.60;99.90
10123;DHT22;5101;49.038;8.710;2023-05-08T06:10:51;16.60;99.90
10123;DHT22;5101;49.038;8.710;2023-05-08T06:13:16;16.50;99.90
10123;DHT22;5101;49.038;8.710;2023-05-08T06:15:42;16.50;99.90
10123;DHT22;5101;49.038;8.710;2023-05-08T06:18:07;16.50;99.90
10123;DHT22;5101;49.038;8.710;2023-05-08T06:20:33;16.50;99.90
10123;DHT22;5101;49.038;8.710;2023-05-08T06:22:58;16.50;99.90
10123;DHT22;5101;49.038;8.710;2023-05-08T06:25:24;16.50;99.90
10123;DHT22;5101;49.038;8.710;2023-05-08T06:27:49;16.50;99.90
10123;DHT22;5101;49.038;8.710;2023-05-08T06:30:15;16.50;99.90
10123;DHT22;5101;49.038;8.710;2023-05-08T06:32:40;16.50;99.90
10123;DHT22;5101;49.038;8.710;2023-05-08T06:35:06;16.60;99.90
10123;DHT22;5101;49.038;8.710;2023-05-08T06:37:32;16.60;99.90
10123;DHT22;5101;49.038;8.710;2023-05-08T06:39:57;16.40;99.90
10123;DHT22;5101;49.038;8.710;2023-05-08T06:42:23;16.40;99.90
10123;DHT22;5101;49.038;8.710;2023-05-08T06:44:48;16.40;99.90
10123;DHT22;5101;49.038;8.710;2023-05-08T06:47:15;16.40;99.90
10123;DHT22;5101;49.038;8.710;2023-05-08T06:49:41;16.30;99.90
10123;DHT22;5101;49.038;8.710;2023-05-08T06:52:06;16.40;99.90
10123;DHT22;5101;49.038;8.710;2023-05-08T06:54:31;16.40;99.90
10123;DHT22;5101;49.038;8.710;2023-05-08T06:56:57;16.50;99.90
10123;DHT22;5101;49.038;8.710;2023-05-08T06:59:22;16.50;99.90
10123;DHT22;5101;49.038;8.710;2023-05-08T07:01:49;16.60;99.90
10123;DHT22;5101;49.038;8.710;2023-05-08T07:04:14;16.50;99.90
10123;DHT22;5101;49.038;8.710;2023-05-08T07:06:40;16.50;99.90
10123;DHT22;5101;49.038;8.710;2023-05-08T07:09:05;16.50;99.90
10123;DHT22;5101;49.038;8.710;2023-05-08T07:11:31;16.40;99.90
10123;DHT22;5101;49.038;8.710;2023-05-08T07:13:56;16.50;99.90
10123;DHT22;5101;49.038;8.710;2023-05-08T07:16:22;16.50;99.90
10123;DHT22;5101;49.038;8.710;2023-05-08T07:18:47;16.40;99.90
10123;DHT22;5101;49.038;8.710;2023-05-08T07:21:13;16.40;99.90
10123;DHT22;5101;49.038;8.710;2023-05-08T07:23:40;16.50;99.90
10123;DHT22;5101;49.038;8.710;2023-05-08T07:26:06;16.60;99.90
10123;DHT22;5101;49.038;8.710;2023-05-08T07:28:32;16.60;99.90
10123;DHT22;5101;49.038;8.710;2023-05-08T07:30:58;16.60;99.90
10123;DHT22;5101;49.038;8.710;2023-05-08T07:33:23;16.50;99.90
10123;DHT22;5101;49.038;8.710;2023-05-08T07:35:49;16.60;99.90
10123;DHT22;5101;49.038;8.710;2023-05-08T07:38:14;16.60;99.90
10123;DHT22;5101;49.038;8.710;2023-05-08T07:40:40;16.70;99.90
10123;DHT22;5101;49.038;8.710;2023-05-08T07:43:05;16.70;99.90
10123;DHT22;5101;49.038;8.710;2023-05-08T07:45:31;16.70;99.90
10123;DHT22;5101;49.038;8.710;2023-05-08T07:47:57;16.70;99.90
10123;DHT22;5101;49.038;8.710;2023-05-08T07:50:24;16.80;99.90
10123;DHT22;5101;49.038;8.710;2023-05-08T07:52:50;16.90;99.90
10123;DHT22;5101;49.038;8.710;2023-05-08T07:55:18;17.00;99.90
10123;DHT22;5101;49.038;8.710;2023-05-08T07:57:43;16.90;99.90
10123;DHT22;5101;49.038;8.710;2023-05-08T08:00:11;17.00;99.90
10123;DHT22;5101;49.038;8.710;2023-05-08T08:02:37;17.00;99.90
10123;DHT22;5101;49.038;8.710;2023-05-08T08:05:03;17.10;99.90
10123;DHT22;5101;49.038;8.710;2023-05-08T08:07:29;17.10;99.90
10123;DHT22;5101;49.038;8.710;2023-05-08T08:09:57;17.10;99.90
10123;DHT22;5101;49.038;8.710;2023-05-08T08:12:22;17.10;99.90
10123;DHT22;5101;49.038;8.710;2023-05-08T08:14:48;17.10;99.90
10123;DHT22;5101;49.038;8.710;2023-05-08T08:17:13;17.20;99.90
10123;DHT22;5101;49.038;8.710;2023-05-08T08:19:39;17.30;99.90
10123;DHT22;5101;49.038;8.710;2023-05-08T08:22:05;17.30;99.90
10123;DHT22;5101;49.038;8.710;2023-05-08T08:24:30;17.40;99.90
10123;DHT22;5101;49.038;8.710;2023-05-08T08:26:56;17.40;99.90
10123;DHT22;5101;49.038;8.710;2023-05-08T08:29:21;17.40;99.90
10123;DHT22;5101;49.038;8.710;2023-05-08T08:31:47;17.40;99.90
10123;DHT22;5101;49.038;8.710;2023-05-08T08:34:12;17.40;99.90
10123;DHT22;5101;49.038;8.710;2023-05-08T08:36:38;17.30;99.90
10123;DHT22;5101;49.038;8.710;2023-05-08T08:39:04;17.40;99.90
10123;DHT22;5101;49.038;8.710;2023-05-08T08:41:30;17.50;99.90
10123;DHT22;5101;49.038;8.710;2023-05-08T08:43:55;17.60;99.90
10123;DHT22;5101;49.038;8.710;2023-05-08T08:46:25;17.60;99.90
10123;DHT22;5101;49.038;8.710;2023-05-08T08:48:54;17.60;99.90
10123;DHT22;5101;49.038;8.710;2023-05-08T08:51:27;17.70;99.90
10123;DHT22;5101;49.038;8.710;2023-05-08T08:54:11;17.80;99.90
10123;DHT22;5101;49.038;8.710;2023-05-08T08:56:38;17.80;99.90
10123;DHT22;5101;49.038;8.710;2023-05-08T08:59:05;17.80;99.90
10123;DHT22;5101;49.038;8.710;2023-05-08T09:01:34;17.80;99.90
10123;DHT22;5101;49.038;8.710;2023-05-08T09:04:03;17.80;99.90
10123;DHT22;5101;49.038;8.710;2023-05-08T09:06:29;17.80;99.90
10123;DHT22;5101;49.038;8.710;2023-05-08T09:08:55;17.80;99.90
10123;DHT22;5101;49.038;8.710;2023-05-08T09:11:25;17.80;99.90
10123;DHT22;5101;49.038;8.710;2023-05-08T09:13:51;17.80;99.90
10123;DHT22;5101;49.038;8.710;2023-05-08T09:16:17;17.80;99.90
10123;DHT22;5101;49.038;8.710;2023-05-08T09:18:43;17.80;99.90
10123;DHT22;5101;49.038;8.710;2023-05-08T09:21:08;17.80;99.90
10123;DHT22;5101;49.038;8.710;2023-05-08T09:24:03;17.80;99.90
10123;DHT22;5101;49.038;8.710;2023-05-08T09:26:32;17.90;99.90
10123;DHT22;5101;49.038;8.710;2023-05-08T09:29:14;17.90;99.90
10123;DHT22;5101;49.038;8.710;2023-05-08T09:31:45;17.80;99.90
10123;DHT22;5101;49.038;8.710;2023-05-08T09:34:24;17.80;99.90
10123;DHT22;5101;49.038;8.710;2023-05-08T09:36:52;17.80;99.90
10123;DHT22;5101;49.038;8.710;2023-05-08T09:39:23;17.80;99.90
10123;DHT22;5101;49.038;8.710;2023-05-08T09:42:00;17.80;99.90
10123;DHT22;5101;49.038;8.710;2023-05-08T09:44:26;17.80;99.90
10123;DHT22;5101;49.038;8.710;2023-05-08T09:47:15;17.70;99.90
10123;DHT22;5101;49.038;8.710;2023-05-08T09:50:02;17.60;99.90
10123;DHT22;5101;49.038;8.710;2023-05-08T09:52:29;17.70;99.90
10123;DHT22;5101;49.038;8.710;2023-05-08T09:57:28;17.70;99.90
10123;DHT22;5101;49.038;8.710;2023-05-08T10:00:00;17.80;99.90
10123;DHT22;5101;49.038;8.710;2023-05-08T10:02:26;17.80;99.90
10123;DHT22;5101;49.038;8.710;2023-05-08T10:04:51;17.80;99.90
10123;DHT22;5101;49.038;8.710;2023-05-08T10:07:35;17.80;99.90
10123;DHT22;5101;49.038;8.710;2023-05-08T10:10:05;17.80;99.90
10123;DHT22;5101;49.038;8.710;2023-05-08T10:12:31;17.70;99.90
10123;DHT22;5101;49.038;8.710;2023-05-08T10:14:58;17.60;99.90
10123;DHT22;5101;49.038;8.710;2023-05-08T10:17:40;17.60;99.90
10123;DHT22;5101;49.038;8.710;2023-05-08T10:20:09;17.60;99.90
10123;DHT22;5101;49.038;8.710;2023-05-08T10:22:36;17.80;99.90
10123;DHT22;5101;49.038;8.710;2023-05-08T10:25:03;17.90;99.90
10123;DHT22;5101;49.038;8.710;2023-05-08T10:27:54;18.00;99.90
10123;DHT22;5101;49.038;8.710;2023-05-08T10:30:24;18.10;99.90
10123;DHT22;5101;49.038;8.710;2023-05-08T10:32:52;18.20;99.90
10123;DHT22;5101;49.038;8.710;2023-05-08T10:35:21;18.10;99.90
10123;DHT22;5101;49.038;8.710;2023-05-08T10:37:48;18.10;99.90
10123;DHT22;5101;49.038;8.710;2023-05-08T10:40:14;18.00;99.90
10123;DHT22;5101;49.038;8.710;2023-05-08T10:42:46;18.10;99.90
10123;DHT22;5101;49.038;8.710;2023-05-08T10:45:12;18.20;99.90
10123;DHT22;5101;49.038;8.710;2023-05-08T10:50:27;18.30;99.90
10123;DHT22;5101;49.038;8.710;2023-05-08T10:55:58;18.40;99.90
10123;DHT22;5101;49.038;8.710;2023-05-08T10:58:35;18.50;99.90
10123;DHT22;5101;49.038;8.710;2023-05-08T11:03:41;18.70;99.90
10123;DHT22;5101;49.038;8.710;2023-05-08T11:06:07;18.90;99.90
10123;DHT22;5101;49.038;8.710;2023-05-08T11:08:45;19.00;99.90
10123;DHT22;5101;49.038;8.710;2023-05-08T11:11:24;19.00;99.90
10123;DHT22;5101;49.038;8.710;2023-05-08T11:19:21;19.20;99.90
10123;DHT22;5101;49.038;8.710;2023-05-08T11:24:56;19.50;99.90
10123;DHT22;5101;49.038;8.710;2023-05-08T11:27:38;19.60;99.90
10123;DHT22;5101;49.038;8.710;2023-05-08T11:30:21;19.80;99.90
10123;DHT22;5101;49.038;8.710;2023-05-08T11:32:57;19.90;99.90
10123;DHT22;5101;49.038;8.710;2023-05-08T11:35:43;20.00;99.90
10123;DHT22;5101;49.038;8.710;2023-05-08T11:38:17;20.10;99.90
10123;DHT22;5101;49.038;8.710;2023-05-08T11:40:48;20.20;99.90
10123;DHT22;5101;49.038;8.710;2023-05-08T11:46:12;20.30;99.90
10123;DHT22;5101;49.038;8.710;2023-05-08T11:48:38;20.30;99.90
10123;DHT22;5101;49.038;8.710;2023-05-08T11:51:04;20.40;99.90
10123;DHT22;5101;49.038;8.710;2023-05-08T11:53:31;20.40;99.90
10123;DHT22;5101;49.038;8.710;2023-05-08T11:55:58;20.40;99.90
10123;DHT22;5101;49.038;8.710;2023-05-08T11:58:24;20.50;99.90
10123;DHT22;5101;49.038;8.710;2023-05-08T12:00:50;20.60;99.90
10123;DHT22;5101;49.038;8.710;2023-05-08T12:03:17;20.60;99.90
10123;DHT22;5101;49.038;8.710;2023-05-08T12:05:43;20.70;99.90
10123;DHT22;5101;49.038;8.710;2023-05-08T12:08:09;20.70;99.90
10123;DHT22;5101;49.038;8.710;2023-05-08T12:13:26;20.70;99.90
10123;DHT22;5101;49.038;8.710;2023-05-08T12:15:57;20.80;99.90
10123;DHT22;5101;49.038;8.710;2023-05-08T12:18:24;20.90;99.90
10123;DHT22;5101;49.038;8.710;2023-05-08T12:21:00;20.80;99.90
10123;DHT22;5101;49.038;8.710;2023-05-08T12:23:27;21.00;99.90
10123;DHT22;5101;49.038;8.710;2023-05-08T12:25:54;21.00;99.90
10123;DHT22;5101;49.038;8.710;2023-05-08T12:28:22;20.90;99.90
10123;DHT22;5101;49.038;8.710;2023-05-08T12:30:48;20.90;99.90
10123;DHT22;5101;49.038;8.710;2023-05-08T12:33:15;21.00;99.90
10123;DHT22;5101;49.038;8.710;2023-05-08T12:35:40;21.10;99.90
10123;DHT22;5101;49.038;8.710;2023-05-08T12:38:07;20.90;99.90
10123;DHT22;5101;49.038;8.710;2023-05-08T12:40:35;20.80;99.90
10123;DHT22;5101;49.038;8.710;2023-05-08T12:43:04;20.60;99.90
10123;DHT22;5101;49.038;8.710;2023-05-08T12:45:34;20.50;99.90
10123;DHT22;5101;49.038;8.710;2023-05-08T12:48:12;20.30;99.90
10123;DHT22;5101;49.038;8.710;2023-05-08T12:50:40;20.00;99.90
10123;DHT22;5101;49.038;8.710;2023-05-08T12:53:12;20.00;99.90
10123;DHT22;5101;49.038;8.710;2023-05-08T12:55:39;20.00;99.90
10123;DHT22;5101;49.038;8.710;2023-05-08T12:58:06;20.00;99.90
10123;DHT22;5101;49.038;8.710;2023-05-08T13:00:43;19.90;99.90
10123;DHT22;5101;49.038;8.710;2023-05-08T13:03:10;20.00;99.90
10123;DHT22;5101;49.038;8.710;2023-05-08T13:05:40;19.90;99.90
10123;DHT22;5101;49.038;8.710;2023-05-08T13:08:07;19.80;99.90
10123;DHT22;5101;49.038;8.710;2023-05-08T13:13:15;20.00;99.90
10123;DHT22;5101;49.038;8.710;2023-05-08T13:15:42;19.70;99.90
10123;DHT22;5101;49.038;8.710;2023-05-08T13:18:07;19.70;99.90
10123;DHT22;5101;49.038;8.710;2023-05-08T13:20:36;19.70;99.90
10123;DHT22;5101;49.038;8.710;2023-05-08T13:23:02;19.70;99.90
10123;DHT22;5101;49.038;8.710;2023-05-08T13:25:29;19.80;99.90
10123;DHT22;5101;49.038;8.710;2023-05-08T13:27:55;19.90;99.90
10123;DHT22;5101;49.038;8.710;2023-05-08T13:30:21;20.00;99.90
10123;DHT22;5101;49.038;8.710;2023-05-08T13:32:48;19.90;99.90
10123;DHT22;5101;49.038;8.710;2023-05-08T13:35:13;20.00;99.90
10123;DHT22;5101;49.038;8.710;2023-05-08T13:37:39;20.10;99.90
10123;DHT22;5101;49.038;8.710;2023-05-08T13:40:05;20.20;99.90
10123;DHT22;5101;49.038;8.710;2023-05-08T13:42:31;20.30;99.90
10123;DHT22;5101;49.038;8.710;2023-05-08T13:44:56;20.30;99.90
10123;DHT22;5101;49.038;8.710;2023-05-08T13:47:22;20.30;99.90
10123;DHT22;5101;49.038;8.710;2023-05-08T13:49:47;20.30;99.90
10123;DHT22;5101;49.038;8.710;2023-05-08T13:52:14;20.30;99.90
10123;DHT22;5101;49.038;8.710;2023-05-08T13:54:40;20.40;99.90
10123;DHT22;5101;49.038;8.710;2023-05-08T13:57:05;20.40;99.90
10123;DHT22;5101;49.038;8.710;2023-05-08T13:59:32;20.40;99.90
10123;DHT22;5101;49.038;8.710;2023-05-08T14:01:58;20.30;99.90
10123;DHT22;5101;49.038;8.710;2023-05-08T14:04:23;20.30;99.90
10123;DHT22;5101;49.038;8.710;2023-05-08T14:06:49;20.20;99.90
10123;DHT22;5101;49.038;8.710;2023-05-08T14:09:14;20.20;99.90
10123;DHT22;5101;49.038;8.710;2023-05-08T14:11:40;20.20;99.90
10123;DHT22;5101;49.038;8.710;2023-05-08T14:14:06;20.20;99.90
10123;DHT22;5101;49.038;8.710;2023-05-08T14:16:31;20.30;99.90
10123;DHT22;5101;49.038;8.710;2023-05-08T14:18:57;20.30;99.90
10123;DHT22;5101;49.038;8.710;2023-05-08T14:21:22;20.20;99.90
10123;DHT22;5101;49.038;8.710;2023-05-08T14:23:48;20.10;99.90
10123;DHT22;5101;49.038;8.710;2023-05-08T14:26:13;20.10;99.90
10123;DHT22;5101;49.038;8.710;2023-05-08T14:28:39;20.10;99.90
10123;DHT22;5101;49.038;8.710;2023-05-08T14:31:04;20.20;99.90
10123;DHT22;5101;49.038;8.710;2023-05-08T14:33:30;20.30;99.90
10123;DHT22;5101;49.038;8.710;2023-05-08T14:35:56;20.40;99.90
10123;DHT22;5101;49.038;8.710;2023-05-08T14:38:21;20.40;99.90
10123;DHT22;5101;49.038;8.710;2023-05-08T14:40:49;20.30;99.90
10123;DHT22;5101;49.038;8.710;2023-05-08T14:43:15;20.30;99.90
10123;DHT22;5101;49.038;8.710;2023-05-08T14:45:40;20.40;99.90
10123;DHT22;5101;49.038;8.710;2023-05-08T14:48:06;20.50;99.90
10123;DHT22;5101;49.038;8.710;2023-05-08T14:50:31;20.40;99.90
10123;DHT22;5101;49.038;8.710;2023-05-08T14:52:57;20.40;99.90
10123;DHT22;5101;49.038;8.710;2023-05-08T14:55:22;20.50;99.70
10123;DHT22;5101;49.038;8.710;2023-05-08T14:57:48;20.50;99.60
10123;DHT22;5101;49.038;8.710;2023-05-08T15:00:15;20.60;99.70
10123;DHT22;5101;49.038;8.710;2023-05-08T15:02:42;20.60;99.60
10123;DHT22;5101;49.038;8.710;2023-05-08T15:05:08;20.60;99.50
10123;DHT22;5101;49.038;8.710;2023-05-08T15:07:34;20.50;99.40
10123;DHT22;5101;49.038;8.710;2023-05-08T15:09:59;20.50;99.50
10123;DHT22;5101;49.038;8.710;2023-05-08T15:12:25;20.50;99.40
10123;DHT22;5101;49.038;8.710;2023-05-08T15:14:50;20.40;99.50
10123;DHT22;5101;49.038;8.710;2023-05-08T15:17:16;20.50;99.50
10123;DHT22;5101;49.038;8.710;2023-05-08T15:19:42;20.50;99.50
10123;DHT22;5101;49.038;8.710;2023-05-08T15:22:07;20.50;99.50
10123;DHT22;5101;49.038;8.710;2023-05-08T15:24:33;20.50;99.70
10123;DHT22;5101;49.038;8.710;2023-05-08T15:26:59;20.60;99.80
10123;DHT22;5101;49.038;8.710;2023-05-08T15:29:24;20.60;99.90
10123;DHT22;5101;49.038;8.710;2023-05-08T15:31:51;20.60;99.90
10123;DHT22;5101;49.038;8.710;2023-05-08T15:34:16;20.60;99.90
10123;DHT22;5101;49.038;8.710;2023-05-08T15:36:42;20.60;99.90
10123;DHT22;5101;49.038;8.710;2023-05-08T15:39:07;20.60;99.90
10123;DHT22;5101;49.038;8.710;2023-05-08T15:41:33;20.60;99.90
10123;DHT22;5101;49.038;8.710;2023-05-08T15:44:01;20.60;99.90
10123;DHT22;5101;49.038;8.710;2023-05-08T15:46:26;20.50;99.90
10123;DHT22;5101;49.038;8.710;2023-05-08T15:48:51;20.40;99.80
10123;DHT22;5101;49.038;8.710;2023-05-08T15:51:17;20.30;99.40
10123;DHT22;5101;49.038;8.710;2023-05-08T15:53:42;20.30;99.40
10123;DHT22;5101;49.038;8.710;2023-05-08T15:56:08;20.30;99.20
10123;DHT22;5101;49.038;8.710;2023-05-08T15:58:33;20.40;99.10
10123;DHT22;5101;49.038;8.710;2023-05-08T16:01:01;20.30;99.00
10123;DHT22;5101;49.038;8.710;2023-05-08T16:03:29;20.30;98.90
10123;DHT22;5101;49.038;8.710;2023-05-08T16:05:54;20.30;99.00
10123;DHT22;5101;49.038;8.710;2023-05-08T16:08:20;20.30;99.10
10123;DHT22;5101;49.038;8.710;2023-05-08T16:10:45;20.40;99.20
10123;DHT22;5101;49.038;8.710;2023-05-08T16:13:13;20.50;99.30
10123;DHT22;5101;49.038;8.710;2023-05-08T16:15:39;20.40;99.40
10123;DHT22;5101;49.038;8.710;2023-05-08T16:18:04;20.40;99.50
10123;DHT22;5101;49.038;8.710;2023-05-08T16:20:30;20.30;99.40
10123;DHT22;5101;49.038;8.710;2023-05-08T16:22:56;20.30;99.50
10123;DHT22;5101;49.038;8.710;2023-05-08T16:25:22;20.40;99.70
10123;DHT22;5101;49.038;8.710;2023-05-08T16:27:47;20.40;99.90
10123;DHT22;5101;49.038;8.710;2023-05-08T16:30:13;20.40;99.80
10123;DHT22;5101;49.038;8.710;2023-05-08T16:32:39;20.40;99.80
10123;DHT22;5101;49.038;8.710;2023-05-08T16:35:05;20.40;99.80
10123;DHT22;5101;49.038;8.710;2023-05-08T16:37:31;20.40;99.70
10123;DHT22;5101;49.038;8.710;2023-05-08T16:39:57;20.40;99.90